createdAt,value
2022-09-06T00:00:20.471Z,17.57
2022-09-06T00:02:47.395Z,17.62
2022-09-06T00:05:14.536Z,17.69
2022-09-06T00:07:42.279Z,17.80
2022-09-06T00:10:09.690Z,17.83
2022-09-06T00:12:36.985Z,17.88
2022-09-06T00:15:05.317Z,17.85
2022-09-06T00:17:33.448Z,17.97
2022-09-06T00:20:00.055Z,17.92
2022-09-06T00:22:26.706Z,17.94
2022-09-06T00:24:53.297Z,17.97
2022-09-06T00:27:19.884Z,17.94
2022-09-06T00:29:46.521Z,17.61
2022-09-06T00:32:13.131Z,17.77
2022-09-06T00:34:39.759Z,17.88
2022-09-06T00:37:06.458Z,17.92
2022-09-06T00:39:33.113Z,17.74
2022-09-06T00:41:59.752Z,17.75
2022-09-06T00:44:26.388Z,17.79
2022-09-06T00:46:54.734Z,17.74
2022-09-06T00:49:29.669Z,17.83
2022-09-06T00:52:09.583Z,17.64
2022-09-06T00:54:36.994Z,17.83
2022-09-06T00:57:04.222Z,17.70
2022-09-06T00:59:34.716Z,17.78
2022-09-06T01:02:01.791Z,17.90
2022-09-06T01:04:29.463Z,17.94
2022-09-06T01:07:05.394Z,18.05
2022-09-06T01:09:53.520Z,18.05
2022-09-06T01:12:43.918Z,18.10
2022-09-06T01:15:22.680Z,18.09
2022-09-06T01:18:16.920Z,18.10
2022-09-06T01:21:06.825Z,18.14
2022-09-06T01:23:55.366Z,18.14
2022-09-06T01:26:46.480Z,18.20
2022-09-06T01:29:33.380Z,18.09
2022-09-06T01:32:38.703Z,18.02
2022-09-06T01:35:47.254Z,18.07
2022-09-06T01:38:14.862Z,17.98
2022-09-06T01:40:41.587Z,17.49
2022-09-06T01:43:13.750Z,17.66
2022-09-06T01:45:58.985Z,17.74
2022-09-06T01:48:54.368Z,17.62
2022-09-06T01:51:55.053Z,17.81
2022-09-06T01:54:57.067Z,17.83
2022-09-06T01:57:29.334Z,17.88
2022-09-06T02:00:18.237Z,17.98
2022-09-06T02:03:10.888Z,18.03
2022-09-06T02:05:51.345Z,17.97
2022-09-06T02:08:26.047Z,18.03
2022-09-06T02:11:01.020Z,18.04
2022-09-06T02:13:32.680Z,18.10
2022-09-06T02:16:04.583Z,18.07
2022-09-06T02:18:40.405Z,18.00
2022-09-06T02:21:10.818Z,18.03
2022-09-06T02:23:40.549Z,18.03
2022-09-06T02:26:12.627Z,18.01
2022-09-06T02:28:39.897Z,18.02
2022-09-06T02:31:16.759Z,18.10
2022-09-06T02:33:46.193Z,18.12
2022-09-06T02:36:15.896Z,18.10
2022-09-06T02:38:44.412Z,18.12
2022-09-06T02:41:12.728Z,18.04
2022-09-06T02:43:40.368Z,18.13
2022-09-06T02:46:07.215Z,18.01
2022-09-06T02:48:33.835Z,18.04
2022-09-06T02:51:07.783Z,18.12
2022-09-06T02:53:34.978Z,18.09
2022-09-06T02:56:01.992Z,18.13
2022-09-06T02:58:29.624Z,18.02
2022-09-06T03:00:56.266Z,18.02
2022-09-06T03:03:23.224Z,18.06
2022-09-06T03:05:52.286Z,18.06
2022-09-06T03:08:20.702Z,18.01
2022-09-06T03:10:56.271Z,17.92
2022-09-06T03:13:26.670Z,18.04
2022-09-06T03:15:56.115Z,18.07
2022-09-06T03:18:28.572Z,18.09
2022-09-06T03:20:56.318Z,17.75
2022-09-06T03:23:26.563Z,17.90
2022-09-06T03:25:53.507Z,17.96
2022-09-06T03:28:21.077Z,18.00
2022-09-06T03:30:49.809Z,18.03
2022-09-06T03:33:17.079Z,18.01
2022-09-06T03:35:56.382Z,17.99
2022-09-06T03:38:24.687Z,17.91
2022-09-06T03:40:52.906Z,17.80
2022-09-06T03:43:21.337Z,17.69
2022-09-06T03:45:50.413Z,17.64
2022-09-06T03:48:18.728Z,17.75
2022-09-06T03:50:46.961Z,17.76
2022-09-06T03:53:15.055Z,17.87
2022-09-06T03:55:45.620Z,17.87
2022-09-06T03:58:12.350Z,17.93
2022-09-06T04:00:39.053Z,17.98
2022-09-06T04:03:05.665Z,17.96
2022-09-06T04:05:32.515Z,18.05
2022-09-06T04:07:59.169Z,18.08
2022-09-06T04:10:25.811Z,18.10
2022-09-06T04:12:52.821Z,18.11
2022-09-06T04:15:19.487Z,18.07
2022-09-06T04:17:47.237Z,18.07
2022-09-06T04:20:15.322Z,18.06
2022-09-06T04:22:42.519Z,18.00
2022-09-06T04:25:09.692Z,17.99
2022-09-06T04:27:36.673Z,18.04
2022-09-06T04:30:03.755Z,18.01
2022-09-06T04:32:30.421Z,18.04
2022-09-06T04:34:57.460Z,18.04
2022-09-06T04:37:24.114Z,18.03
2022-09-06T04:39:50.820Z,18.06
2022-09-06T04:42:17.529Z,18.06
2022-09-06T04:44:44.135Z,18.10
2022-09-06T04:47:15.520Z,18.12
2022-09-06T04:49:42.741Z,18.11
2022-09-06T04:52:09.803Z,17.77
2022-09-06T04:54:36.554Z,17.46
2022-09-06T04:57:03.883Z,17.72
2022-09-06T04:59:30.542Z,17.86
2022-09-06T05:01:57.290Z,17.95
2022-09-06T05:04:24.176Z,18.01
2022-09-06T05:06:59.209Z,18.03
2022-09-06T05:09:25.882Z,18.13
2022-09-06T05:11:52.478Z,18.15
2022-09-06T05:14:19.116Z,18.17
2022-09-06T05:16:46.754Z,18.21
2022-09-06T05:19:14.000Z,18.30
2022-09-06T05:21:41.169Z,18.26
2022-09-06T05:24:08.081Z,18.25
2022-09-06T05:26:34.785Z,18.26
2022-09-06T05:29:01.445Z,18.29
2022-09-06T05:31:33.092Z,18.29
2022-09-06T05:34:00.230Z,18.28
2022-09-06T05:36:27.915Z,18.29
2022-09-06T05:38:56.192Z,18.33
2022-09-06T05:41:23.948Z,18.33
2022-09-06T05:43:50.647Z,18.38
2022-09-06T05:46:17.911Z,18.41
2022-09-06T05:48:44.889Z,18.48
2022-09-06T05:51:13.627Z,18.46
2022-09-06T05:53:43.026Z,18.53
2022-09-06T05:56:11.559Z,18.57
2022-09-06T05:58:39.091Z,18.58
2022-09-06T06:01:19.720Z,18.58
2022-09-06T06:03:54.157Z,18.60
2022-09-06T06:06:21.931Z,18.47
2022-09-06T06:08:48.659Z,18.50
2022-09-06T06:11:16.134Z,18.43
2022-09-06T06:13:44.119Z,18.59
2022-09-06T06:16:15.961Z,18.63
2022-09-06T06:18:46.749Z,18.63
2022-09-06T06:21:24.575Z,18.72
2022-09-06T06:23:53.981Z,18.66
2022-09-06T06:26:20.972Z,18.75
2022-09-06T06:28:48.941Z,18.67
2022-09-06T06:31:16.037Z,18.66
2022-09-06T06:33:43.467Z,18.74
2022-09-06T06:36:13.347Z,18.86
2022-09-06T06:38:42.301Z,18.83
2022-09-06T06:41:11.265Z,18.82
2022-09-06T06:43:38.173Z,18.82
2022-09-06T06:46:09.492Z,18.83
2022-09-06T06:48:37.586Z,18.83
2022-09-06T06:51:04.541Z,18.84
2022-09-06T06:53:31.298Z,18.85
2022-09-06T06:55:57.930Z,18.87
2022-09-06T06:58:25.449Z,18.80
2022-09-06T07:00:52.239Z,18.82
2022-09-06T07:03:19.284Z,18.87
2022-09-06T07:08:35.252Z,18.93
2022-09-06T07:11:02.675Z,18.94
2022-09-06T07:13:29.592Z,18.94
2022-09-06T07:16:22.090Z,18.98
2022-09-06T07:18:53.447Z,18.94
2022-09-06T07:21:41.918Z,19.02
2022-09-06T07:24:09.440Z,18.96
2022-09-06T07:26:38.465Z,19.04
2022-09-06T07:29:06.610Z,19.02
2022-09-06T07:34:20.950Z,19.04
2022-09-06T07:36:48.353Z,19.00
2022-09-06T07:39:14.986Z,19.07
2022-09-06T07:41:43.121Z,19.09
2022-09-06T07:44:09.987Z,19.05
2022-09-06T07:46:36.882Z,19.14
2022-09-06T07:49:07.434Z,19.17
2022-09-06T07:51:34.235Z,19.10
2022-09-06T07:56:48.010Z,19.20
2022-09-06T07:59:14.733Z,19.29
2022-09-06T08:01:41.783Z,19.20
2022-09-06T08:04:10.031Z,19.27
2022-09-06T08:09:26.184Z,19.23
2022-09-06T08:11:53.085Z,19.33
2022-09-06T08:14:20.486Z,19.37
2022-09-06T08:16:47.503Z,19.37
2022-09-06T08:19:14.471Z,19.46
2022-09-06T08:21:41.159Z,19.48
2022-09-06T08:24:10.224Z,19.47
2022-09-06T08:26:43.185Z,19.51
2022-09-06T08:29:11.106Z,19.52
2022-09-06T08:31:41.403Z,19.48
2022-09-06T08:34:08.729Z,19.52
2022-09-06T08:36:36.040Z,19.46
2022-09-06T08:39:06.239Z,19.47
2022-09-06T08:41:38.179Z,19.57
2022-09-06T08:47:07.530Z,19.67
2022-09-06T08:49:41.855Z,19.66
2022-09-06T08:52:21.923Z,19.72
2022-09-06T08:55:14.861Z,19.66
2022-09-06T08:57:50.829Z,19.67
2022-09-06T09:00:25.919Z,19.62
2022-09-06T09:03:16.518Z,19.76
2022-09-06T09:05:47.330Z,19.80
2022-09-06T09:08:24.788Z,19.73
2022-09-06T09:11:16.800Z,19.86
2022-09-06T09:13:54.672Z,19.88
2022-09-06T09:16:22.586Z,19.59
2022-09-06T09:18:53.688Z,19.70
2022-09-06T09:21:26.836Z,19.78
2022-09-06T09:24:01.482Z,19.83
2022-09-06T09:26:35.615Z,19.91
2022-09-06T09:29:14.267Z,19.94
2022-09-06T09:31:53.600Z,20.01
2022-09-06T09:34:33.945Z,20.02
2022-09-06T09:40:28.556Z,20.11
2022-09-06T09:43:08.853Z,20.05
2022-09-06T09:45:35.470Z,20.12
2022-09-06T09:48:27.316Z,19.99
2022-09-06T09:50:55.900Z,19.96
2022-09-06T09:53:23.878Z,20.03
2022-09-06T09:55:57.259Z,19.96
2022-09-06T09:58:36.190Z,20.06
2022-09-06T10:01:15.996Z,20.13
2022-09-06T10:09:21.171Z,20.16
2022-09-06T10:11:56.618Z,20.23
2022-09-06T10:14:40.560Z,20.24
2022-09-06T10:17:07.203Z,20.21
2022-09-06T10:19:40.888Z,20.25
2022-09-06T10:22:22.416Z,20.42
2022-09-06T10:25:14.064Z,20.45
2022-09-06T10:28:11.436Z,20.36
2022-09-06T10:31:27.088Z,20.38
2022-09-06T10:34:06.887Z,20.53
2022-09-06T10:36:40.040Z,20.50
2022-09-06T10:39:18.684Z,20.53
2022-09-06T10:41:51.004Z,20.56
2022-09-06T10:44:41.158Z,20.59
2022-09-06T10:47:14.467Z,20.54
2022-09-06T10:49:44.943Z,20.52
2022-09-06T10:52:27.994Z,20.45
2022-09-06T10:55:02.275Z,20.61
2022-09-06T11:00:28.543Z,20.56
2022-09-06T11:05:58.978Z,20.66
2022-09-06T11:08:53.586Z,20.78
2022-09-06T11:11:40.675Z,20.85
2022-09-06T11:14:13.034Z,20.86
2022-09-06T11:17:05.261Z,20.84
2022-09-06T11:19:47.495Z,20.89
2022-09-06T11:22:36.028Z,20.94
2022-09-06T11:25:36.608Z,20.97
2022-09-06T11:28:05.841Z,20.83
2022-09-06T11:30:32.693Z,20.82
2022-09-06T11:33:25.608Z,20.84
2022-09-06T11:35:53.500Z,20.93
2022-09-06T11:38:26.490Z,20.93
2022-09-06T11:41:02.548Z,20.97
2022-09-06T11:43:45.337Z,21.12
2022-09-06T11:46:34.899Z,21.06
2022-09-06T11:49:05.465Z,21.19
2022-09-06T11:51:35.017Z,21.16
2022-09-06T11:54:19.453Z,21.26
2022-09-06T11:56:45.976Z,21.29
2022-09-06T11:59:21.836Z,21.41
2022-09-06T12:02:04.688Z,21.54
2022-09-06T12:05:00.999Z,21.65
2022-09-06T12:07:29.740Z,21.70
2022-09-06T12:09:56.577Z,21.67
2022-09-06T12:12:44.796Z,21.85
2022-09-06T12:15:43.091Z,22.01
2022-09-06T12:18:10.033Z,22.12
2022-09-06T12:20:48.762Z,22.30
2022-09-06T12:23:38.486Z,22.44
2022-09-06T12:26:07.048Z,22.46
2022-09-06T12:28:43.883Z,22.76
2022-09-06T12:31:34.885Z,23.12
2022-09-06T12:34:08.854Z,23.44
2022-09-06T12:36:36.646Z,23.67
2022-09-06T12:39:12.274Z,23.95
2022-09-06T12:41:45.078Z,24.09
2022-09-06T12:44:14.797Z,24.18
2022-09-06T12:46:49.998Z,24.35
2022-09-06T12:49:20.667Z,24.51
2022-09-06T12:51:48.114Z,24.62
2022-09-06T12:54:24.287Z,24.74
2022-09-06T12:56:51.734Z,24.81
2022-09-06T12:59:21.278Z,24.87
2022-09-06T13:01:57.072Z,24.88
2022-09-06T13:04:34.215Z,24.91
2022-09-06T13:07:04.716Z,24.99
2022-09-06T13:09:33.300Z,25.04
2022-09-06T13:12:06.779Z,25.01
2022-09-06T13:14:34.835Z,24.99
2022-09-06T13:17:01.680Z,24.99
2022-09-06T13:19:38.331Z,25.09
2022-09-06T13:22:08.706Z,25.02
2022-09-06T13:24:35.539Z,25.13
2022-09-06T13:27:26.845Z,25.16
2022-09-06T13:30:01.330Z,25.17
2022-09-06T13:32:28.986Z,25.16
2022-09-06T13:34:58.563Z,25.25
2022-09-06T13:37:27.355Z,25.19
2022-09-06T13:39:54.198Z,25.24
2022-09-06T13:42:26.172Z,25.30
2022-09-06T13:44:52.981Z,25.21
2022-09-06T13:47:19.647Z,25.22
2022-09-06T13:49:47.373Z,25.25
2022-09-06T13:52:15.255Z,25.23
2022-09-06T13:54:42.110Z,25.20
2022-09-06T13:57:09.856Z,25.15
2022-09-06T13:59:36.642Z,25.12
2022-09-06T14:02:05.077Z,25.09
2022-09-06T14:04:32.649Z,25.06
2022-09-06T14:06:59.573Z,25.02
2022-09-06T14:09:26.348Z,24.87
2022-09-06T14:11:53.290Z,24.86
2022-09-06T14:14:20.034Z,24.86
2022-09-06T14:16:47.757Z,24.81
2022-09-06T14:19:15.097Z,24.77
2022-09-06T14:21:41.849Z,24.67
2022-09-06T14:24:08.486Z,24.70
2022-09-06T14:26:36.756Z,24.65
2022-09-06T14:29:04.822Z,24.60
2022-09-06T14:31:34.646Z,24.62
2022-09-06T14:34:02.143Z,24.62
2022-09-06T14:36:31.318Z,24.56
2022-09-06T14:38:59.307Z,24.54
2022-09-06T14:41:26.971Z,24.45
2022-09-06T14:43:56.233Z,24.49
2022-09-06T14:46:28.172Z,24.45
2022-09-06T14:49:10.245Z,24.42
2022-09-06T14:51:38.669Z,24.38
2022-09-06T14:54:09.170Z,24.31
2022-09-06T14:56:41.236Z,24.33
2022-09-06T14:59:09.250Z,24.32
2022-09-06T15:01:38.582Z,24.35
2022-09-06T15:04:07.778Z,24.32
2022-09-06T15:06:39.306Z,24.28
2022-09-06T15:09:07.298Z,24.24
2022-09-06T15:11:49.398Z,24.27
2022-09-06T15:14:27.187Z,24.22
2022-09-06T15:17:00.086Z,24.17
2022-09-06T15:19:29.635Z,24.22
2022-09-06T15:21:57.562Z,24.09
2022-09-06T15:24:24.706Z,24.18
2022-09-06T15:26:51.749Z,24.11
2022-09-06T15:29:18.434Z,24.10
2022-09-06T15:31:50.359Z,24.06
2022-09-06T15:34:22.502Z,24.07
2022-09-06T15:36:50.296Z,24.06
2022-09-06T15:39:17.310Z,24.07
2022-09-06T15:41:44.533Z,24.05
2022-09-06T15:44:14.443Z,24.03
2022-09-06T15:46:43.294Z,24.08
2022-09-06T15:49:13.063Z,24.03
2022-09-06T15:51:42.116Z,23.48
2022-09-06T15:54:10.886Z,23.32
2022-09-06T15:56:38.108Z,22.96
2022-09-06T15:59:05.523Z,22.86
2022-09-06T16:01:34.330Z,22.81
2022-09-06T16:04:06.305Z,22.70
2022-09-06T16:06:42.705Z,22.60
2022-09-06T16:09:14.679Z,22.51
2022-09-06T16:11:42.164Z,22.44
2022-09-06T16:14:12.315Z,22.38
2022-09-06T16:16:40.693Z,22.35
2022-09-06T16:19:08.167Z,22.28
2022-09-06T16:21:37.944Z,22.19
2022-09-06T16:24:07.145Z,22.10
2022-09-06T16:26:39.752Z,22.06
2022-09-06T16:29:08.508Z,22.03
2022-09-06T16:31:40.006Z,21.94
2022-09-06T16:34:07.989Z,21.94
2022-09-06T16:36:34.931Z,21.84
2022-09-06T16:39:01.712Z,21.81
2022-09-06T16:41:31.554Z,21.72
2022-09-06T16:43:59.148Z,21.73
2022-09-06T16:46:28.861Z,21.66
2022-09-06T16:48:59.787Z,21.59
2022-09-06T16:51:27.553Z,21.55
2022-09-06T16:53:55.014Z,21.56
2022-09-06T16:56:24.408Z,21.57
2022-09-06T16:58:53.271Z,21.56
2022-09-06T17:01:21.402Z,21.56
2022-09-06T17:03:48.537Z,21.54
2022-09-06T17:06:15.867Z,21.49
2022-09-06T17:08:44.620Z,21.48
2022-09-06T17:11:17.322Z,21.45
2022-09-06T17:13:45.715Z,20.78
2022-09-06T17:16:31.315Z,20.09
2022-09-06T17:18:59.778Z,19.74
2022-09-06T17:21:27.696Z,19.45
2022-09-06T17:23:54.897Z,19.28
2022-09-06T17:26:22.576Z,19.14
2022-09-06T17:28:52.841Z,19.09
2022-09-06T17:31:25.018Z,19.15
2022-09-06T17:33:53.652Z,19.18
2022-09-06T17:36:25.193Z,19.17
2022-09-06T17:38:53.893Z,19.20
2022-09-06T17:41:24.584Z,19.23
2022-09-06T17:43:54.498Z,19.16
2022-09-06T17:46:26.466Z,19.20
2022-09-06T17:48:55.429Z,19.25
2022-09-06T17:51:22.246Z,19.24
2022-09-06T17:53:49.072Z,19.26
2022-09-06T17:56:17.394Z,19.30
2022-09-06T17:58:53.131Z,19.31
2022-09-06T18:01:20.187Z,19.30
2022-09-06T18:03:47.474Z,19.40
2022-09-06T18:06:16.853Z,19.43
2022-09-06T18:08:44.252Z,19.48
2022-09-06T18:11:25.267Z,19.02
2022-09-06T18:14:00.115Z,19.17
2022-09-06T18:16:28.898Z,19.33
2022-09-06T18:19:01.753Z,19.42
2022-09-06T18:21:31.406Z,19.83
2022-09-06T18:23:58.933Z,19.52
2022-09-06T18:26:26.326Z,19.50
2022-09-06T18:28:53.748Z,19.58
2022-09-06T18:31:22.946Z,19.54
2022-09-06T18:33:49.918Z,19.67
2022-09-06T18:36:18.547Z,19.75
2022-09-06T18:38:46.176Z,19.79
2022-09-06T18:41:33.858Z,19.83
2022-09-06T18:44:03.197Z,19.86
2022-09-06T18:46:34.731Z,19.90
2022-09-06T18:49:01.930Z,19.82
2022-09-06T18:51:28.838Z,19.72
2022-09-06T18:53:57.631Z,19.72
2022-09-06T18:56:25.751Z,19.69
2022-09-06T18:58:59.029Z,19.67
2022-09-06T19:01:29.224Z,19.78
2022-09-06T19:04:00.339Z,19.81
2022-09-06T19:06:29.338Z,19.81
2022-09-06T19:09:01.129Z,19.90
2022-09-06T19:11:28.981Z,19.86
2022-09-06T19:13:57.509Z,19.88
2022-09-06T19:16:26.125Z,19.80
2022-09-06T19:18:57.041Z,19.78
2022-09-06T19:21:25.737Z,20.10
2022-09-06T19:23:59.668Z,19.90
2022-09-06T19:26:33.954Z,20.08
2022-09-06T19:29:05.538Z,20.07
2022-09-06T19:31:34.996Z,20.03
2022-09-06T19:34:02.292Z,19.93
2022-09-06T19:36:30.000Z,19.99
2022-09-06T19:39:03.934Z,19.93
2022-09-06T19:41:33.561Z,19.88
2022-09-06T19:44:00.909Z,19.82
2022-09-06T19:46:28.722Z,19.74
2022-09-06T19:48:56.595Z,19.61
2022-09-06T19:51:24.213Z,19.54
2022-09-06T19:53:57.920Z,19.44
2022-09-06T19:56:32.837Z,19.38
2022-09-06T19:59:02.691Z,19.30
2022-09-06T20:01:31.259Z,19.28
2022-09-06T20:03:59.432Z,19.28
2022-09-06T20:06:27.423Z,19.22
2022-09-06T20:08:56.633Z,19.23
2022-09-06T20:11:26.258Z,19.22
2022-09-06T20:13:53.144Z,19.19
2022-09-06T20:16:21.078Z,19.17
2022-09-06T20:18:49.236Z,19.17
2022-09-06T20:21:18.696Z,19.03
2022-09-06T20:23:50.551Z,19.03
2022-09-06T20:26:18.298Z,18.86
2022-09-06T20:28:45.945Z,18.73
2022-09-06T20:31:18.081Z,18.67
2022-09-06T20:33:49.393Z,18.71
2022-09-06T20:36:18.276Z,18.82
2022-09-06T20:38:46.713Z,18.89
2022-09-06T20:41:21.453Z,18.98
2022-09-06T20:43:53.627Z,19.00
2022-09-06T20:46:23.232Z,18.95
2022-09-06T20:48:50.378Z,18.97
2022-09-06T20:51:20.084Z,18.92
2022-09-06T20:53:50.978Z,18.77
2022-09-06T20:56:20.988Z,18.74
2022-09-06T20:59:00.922Z,18.71
2022-09-06T21:01:30.972Z,18.50
2022-09-06T21:03:59.595Z,18.45
2022-09-06T21:06:29.223Z,18.52
2022-09-06T21:08:57.681Z,18.48
2022-09-06T21:11:24.416Z,18.46
2022-09-06T21:13:52.810Z,18.27
2022-09-06T21:16:24.577Z,18.64
2022-09-06T21:19:00.878Z,18.44
2022-09-06T21:21:29.688Z,18.25
2022-09-06T21:23:56.500Z,18.43
2022-09-06T21:26:23.610Z,18.50
2022-09-06T21:28:50.279Z,18.41
2022-09-06T21:31:26.151Z,18.46
2022-09-06T21:33:55.970Z,18.41
2022-09-06T21:36:31.121Z,18.48
2022-09-06T21:38:59.697Z,18.48
2022-09-06T21:41:27.623Z,18.45
2022-09-06T21:43:59.449Z,18.40
2022-09-06T21:46:32.828Z,18.48
2022-09-06T21:49:01.940Z,18.39
2022-09-06T21:51:28.507Z,17.96
2022-09-06T21:53:57.118Z,17.96
2022-09-06T21:56:24.845Z,18.07
2022-09-06T21:58:56.314Z,18.23
2022-09-06T22:01:24.799Z,18.32
2022-09-06T22:03:51.513Z,18.33
2022-09-06T22:06:23.668Z,18.27
2022-09-06T22:08:50.656Z,18.31
2022-09-06T22:11:19.445Z,18.33
2022-09-06T22:13:47.127Z,18.33
2022-09-06T22:16:16.035Z,18.36
2022-09-06T22:18:43.277Z,18.31
2022-09-06T22:21:12.894Z,18.39
2022-09-06T22:23:39.851Z,18.39
2022-09-06T22:26:12.071Z,18.36
2022-09-06T22:28:40.363Z,18.34
2022-09-06T22:31:08.041Z,18.27
2022-09-06T22:33:35.339Z,18.26
2022-09-06T22:36:02.270Z,18.23
2022-09-06T22:38:30.316Z,18.18
2022-09-06T22:40:58.487Z,18.18
2022-09-06T22:43:25.754Z,18.20
2022-09-06T22:45:52.385Z,18.18
2022-09-06T22:48:19.323Z,18.17
2022-09-06T22:50:46.502Z,18.15
2022-09-06T22:53:13.085Z,18.11
2022-09-06T22:55:39.717Z,18.08
2022-09-06T22:58:06.472Z,18.04
2022-09-06T23:00:36.096Z,18.02
2022-09-06T23:03:02.940Z,18.00
2022-09-06T23:05:31.518Z,17.99
2022-09-06T23:08:00.322Z,17.74
2022-09-06T23:10:27.576Z,17.83
2022-09-06T23:12:54.731Z,17.91
2022-09-06T23:15:21.465Z,17.90
2022-09-06T23:17:48.232Z,17.92
2022-09-06T23:20:14.869Z,17.89
2022-09-06T23:22:41.797Z,17.85
2022-09-06T23:25:08.848Z,17.86
2022-09-06T23:27:35.480Z,17.85
2022-09-06T23:30:03.283Z,17.81
2022-09-06T23:32:32.792Z,17.82
2022-09-06T23:34:59.407Z,17.87
2022-09-06T23:37:26.000Z,17.85
2022-09-06T23:39:52.758Z,18.12
2022-09-06T23:42:19.559Z,18.36
2022-09-06T23:44:46.144Z,18.24
2022-09-06T23:47:12.781Z,18.13
2022-09-06T23:49:39.380Z,18.17
2022-09-06T23:52:06.252Z,18.12
2022-09-06T23:54:33.023Z,18.12
2022-09-06T23:56:59.630Z,18.16
2022-09-06T23:59:26.256Z,18.03
